Terminal Aerodrome Forecast
Issued by NWS

Home | Current Version | Previous Version | Text Only | Print | Product List | Glossary On
Versions: 1 2 3 4 5 6 7 8 9 10 11 12 13 14
794
FTUS45 KABQ 022104 AAA
TAFLVS
TAF AMD
KLVS 022104Z 0221/0318 03012KT 5SM -SN OVC025
      TEMPO 0221/0301 1/2SM SN FG OVC008
     FM030100 04010KT 4SM -SN OVC025
      TEMPO 0301/0305 3/4SM -SN BR OVC006
     FM030600 03008KT 3SM -SN OVC025
     FM030900 02006KT 3SM -SN BR OVC008
     FM031400 03006KT P6SM VCSH BKN015=

USA.gov is the U.S. government's official web portal to all federal, state and local government web resources and services.